createdAt,value
2022-11-10T00:00:39.453Z,8.36
2022-11-10T00:03:05.939Z,8.39
2022-11-10T00:05:32.732Z,8.41
2022-11-10T00:07:57.835Z,8.44
2022-11-10T00:10:23.293Z,8.41
2022-11-10T00:12:52.606Z,8.41
2022-11-10T00:15:41.970Z,8.39
2022-11-10T00:18:08.657Z,8.34
2022-11-10T00:20:34.549Z,8.34
2022-11-10T00:23:01.688Z,8.33
2022-11-10T00:25:29.756Z,8.25
2022-11-10T00:27:57.316Z,8.25
2022-11-10T00:30:22.569Z,8.22
2022-11-10T00:32:51.153Z,8.21
2022-11-10T00:35:17.073Z,8.20
2022-11-10T00:37:41.914Z,8.23
2022-11-10T00:40:08.520Z,8.21
2022-11-10T00:42:33.105Z,8.21
2022-11-10T00:45:03.480Z,8.17
2022-11-10T00:47:29.403Z,8.19
2022-11-10T00:49:56.094Z,8.19
2022-11-10T00:52:21.041Z,8.12
2022-11-10T00:54:46.603Z,8.14
2022-11-10T00:57:11.245Z,8.11
2022-11-10T00:59:36.037Z,8.10
2022-11-10T01:02:04.532Z,8.06
2022-11-10T01:04:29.683Z,8.09
2022-11-10T01:06:54.832Z,8.07
2022-11-10T01:09:20.653Z,8.00
2022-11-10T01:11:45.961Z,8.02
2022-11-10T01:14:11.478Z,8.05
2022-11-10T01:16:37.294Z,8.08
2022-11-10T01:19:06.693Z,8.05
2022-11-10T01:21:34.305Z,8.07
2022-11-10T01:24:01.252Z,8.00
2022-11-10T01:26:28.085Z,8.02
2022-11-10T01:28:54.734Z,8.00
2022-11-10T01:31:24.851Z,8.00
2022-11-10T01:33:50.163Z,8.02
2022-11-10T01:36:18.445Z,8.00
2022-11-10T01:38:47.071Z,7.94
2022-11-10T01:41:15.968Z,7.94
2022-11-10T01:43:41.175Z,7.95
2022-11-10T01:46:10.012Z,7.90
2022-11-10T01:48:42.134Z,7.97
2022-11-10T01:51:17.834Z,7.90
2022-11-10T01:53:52.566Z,7.94
2022-11-10T01:56:21.404Z,8.00
2022-11-10T01:58:57.104Z,8.02
2022-11-10T02:01:23.406Z,8.01
2022-11-10T02:03:55.085Z,8.00
2022-11-10T02:06:25.519Z,7.90
2022-11-10T02:08:57.073Z,7.88
2022-11-10T02:11:22.486Z,7.87
2022-11-10T02:13:47.427Z,7.81
2022-11-10T02:16:16.421Z,7.79
2022-11-10T02:18:41.372Z,7.74
2022-11-10T02:21:10.872Z,7.76
2022-11-10T02:23:52.775Z,7.80
2022-11-10T02:26:23.820Z,7.77
2022-11-10T02:28:49.638Z,7.86
2022-11-10T02:31:14.741Z,7.86
2022-11-10T02:33:40.416Z,7.87
2022-11-10T02:36:06.542Z,7.89
2022-11-10T02:38:34.155Z,7.95
2022-11-10T02:40:59.358Z,8.01
2022-11-10T02:43:26.399Z,8.05
2022-11-10T02:45:54.680Z,8.06
2022-11-10T02:48:20.493Z,8.03
2022-11-10T02:50:46.621Z,8.04
2022-11-10T02:53:12.029Z,8.04
2022-11-10T02:55:39.852Z,8.03
2022-11-10T02:58:05.718Z,8.09
2022-11-10T03:00:31.441Z,8.15
2022-11-10T03:03:02.233Z,8.17
2022-11-10T03:05:28.871Z,8.20
2022-11-10T03:07:57.191Z,8.21
2022-11-10T03:10:22.810Z,8.29
2022-11-10T03:12:51.699Z,8.35
2022-11-10T03:15:16.858Z,8.35
2022-11-10T03:17:42.107Z,8.37
2022-11-10T03:20:09.982Z,8.36
2022-11-10T03:22:34.766Z,8.40
2022-11-10T03:24:59.459Z,8.42
2022-11-10T03:27:25.495Z,8.44
2022-11-10T03:29:53.358Z,8.43
2022-11-10T03:32:19.118Z,8.42
2022-11-10T03:34:44.381Z,8.44
2022-11-10T03:37:09.436Z,8.48
2022-11-10T03:39:34.852Z,8.47
2022-11-10T03:41:59.739Z,8.46
2022-11-10T03:44:24.378Z,8.51
2022-11-10T03:46:53.013Z,8.51
2022-11-10T03:49:17.918Z,8.44
2022-11-10T03:51:42.972Z,8.45
2022-11-10T03:54:09.707Z,8.45
2022-11-10T03:56:34.558Z,8.48
2022-11-10T03:58:59.352Z,8.49
2022-11-10T04:01:25.468Z,8.53
2022-11-10T04:03:53.144Z,8.59
2022-11-10T04:06:30.763Z,8.64
2022-11-10T04:09:02.904Z,8.66
2022-11-10T04:11:41.064Z,8.63
2022-11-10T04:14:19.332Z,8.65
2022-11-10T04:16:44.328Z,8.65
2022-11-10T04:19:12.964Z,8.64
2022-11-10T04:21:37.906Z,8.63
2022-11-10T04:24:02.765Z,8.59
2022-11-10T04:26:39.943Z,8.57
2022-11-10T04:29:08.887Z,8.59
2022-11-10T04:31:38.750Z,8.61
2022-11-10T04:34:03.904Z,8.63
2022-11-10T04:36:35.915Z,8.63
2022-11-10T04:39:05.011Z,8.60
2022-11-10T04:41:33.273Z,8.58
2022-11-10T04:43:58.137Z,8.63
2022-11-10T04:46:28.057Z,8.63
2022-11-10T04:48:54.389Z,8.60
2022-11-10T04:51:20.259Z,8.60
2022-11-10T04:53:48.435Z,8.62
2022-11-10T04:56:18.666Z,8.63
2022-11-10T04:58:43.409Z,8.69
2022-11-10T05:01:09.054Z,8.72
2022-11-10T05:03:33.756Z,8.72
2022-11-10T05:05:58.862Z,8.75
2022-11-10T05:08:24.693Z,8.77
2022-11-10T05:10:52.137Z,8.81
2022-11-10T05:13:17.245Z,8.83
2022-11-10T05:15:43.118Z,8.84
2022-11-10T05:18:08.216Z,8.85
2022-11-10T05:20:33.117Z,8.82
2022-11-10T05:23:11.067Z,8.83
2022-11-10T05:25:44.310Z,8.83
2022-11-10T05:28:16.739Z,8.85
2022-11-10T05:30:43.578Z,8.89
2022-11-10T05:33:09.196Z,8.90
2022-11-10T05:35:35.217Z,8.92
2022-11-10T05:38:00.170Z,8.94
2022-11-10T05:40:26.454Z,8.99
2022-11-10T05:42:54.836Z,9.02
2022-11-10T05:45:26.168Z,9.05
2022-11-10T05:47:52.553Z,9.07
2022-11-10T05:50:18.221Z,9.09
2022-11-10T05:52:49.989Z,9.13
2022-11-10T05:55:18.472Z,9.16
2022-11-10T05:57:46.694Z,9.17
2022-11-10T06:00:14.258Z,9.15
2022-11-10T06:02:48.171Z,9.13
2022-11-10T06:05:14.345Z,9.14
2022-11-10T06:07:47.948Z,9.13
2022-11-10T06:10:20.342Z,9.12
2022-11-10T06:12:46.813Z,9.14
2022-11-10T06:15:17.894Z,9.14
2022-11-10T06:17:45.249Z,9.18
2022-11-10T06:20:13.056Z,9.14
2022-11-10T06:22:40.375Z,9.14
2022-11-10T06:25:06.344Z,9.07
2022-11-10T06:27:32.063Z,9.04
2022-11-10T06:29:58.245Z,9.01
2022-11-10T06:32:22.887Z,8.99
2022-11-10T06:35:00.503Z,8.90
2022-11-10T06:37:25.943Z,8.89
2022-11-10T06:39:51.914Z,8.83
2022-11-10T06:42:37.815Z,8.83
2022-11-10T06:45:04.139Z,8.86
2022-11-10T06:47:28.832Z,8.90
2022-11-10T06:50:07.708Z,8.90
2022-11-10T06:52:33.574Z,8.89
2022-11-10T06:54:59.036Z,8.88
2022-11-10T06:57:23.834Z,8.93
2022-11-10T06:59:49.599Z,8.94
2022-11-10T07:02:18.756Z,8.90
2022-11-10T07:04:43.289Z,8.96
2022-11-10T07:07:15.622Z,8.97
2022-11-10T07:09:46.906Z,8.90
2022-11-10T07:12:12.372Z,8.94
2022-11-10T07:14:39.829Z,8.97
2022-11-10T07:17:04.617Z,9.01
2022-11-10T07:19:30.302Z,9.04
2022-11-10T07:21:54.988Z,9.08
2022-11-10T07:24:22.453Z,9.14
2022-11-10T07:26:48.107Z,9.15
2022-11-10T07:29:13.115Z,9.20
2022-11-10T07:31:53.688Z,9.23
2022-11-10T07:34:18.273Z,9.27
2022-11-10T07:36:46.345Z,9.32
2022-11-10T07:39:11.817Z,9.31
2022-11-10T07:41:39.470Z,9.35
2022-11-10T07:44:04.775Z,9.42
2022-11-10T07:46:31.464Z,9.38
2022-11-10T07:48:56.994Z,9.42
2022-11-10T07:51:22.138Z,9.44
2022-11-10T07:53:47.900Z,9.41
2022-11-10T07:56:13.012Z,9.41
2022-11-10T07:58:47.226Z,9.35
2022-11-10T08:01:14.382Z,9.29
2022-11-10T08:03:39.121Z,9.30
2022-11-10T08:06:04.937Z,9.32
2022-11-10T08:08:31.017Z,9.35
2022-11-10T08:11:05.133Z,9.33
2022-11-10T08:13:33.221Z,9.40
2022-11-10T08:16:04.398Z,9.46
2022-11-10T08:18:35.602Z,9.50
2022-11-10T08:21:07.815Z,9.52
2022-11-10T08:23:37.884Z,9.52
2022-11-10T08:26:04.560Z,9.52
2022-11-10T08:28:30.512Z,9.55
2022-11-10T08:31:05.344Z,9.52
2022-11-10T08:33:37.144Z,9.57
2022-11-10T08:36:05.247Z,9.57
2022-11-10T08:38:29.835Z,9.64
2022-11-10T08:41:00.289Z,9.68
2022-11-10T08:43:28.565Z,9.75
2022-11-10T08:46:03.845Z,9.82
2022-11-10T08:48:33.195Z,9.87
2022-11-10T08:51:03.956Z,9.94
2022-11-10T08:55:21.779Z,9.99
2022-11-10T08:57:47.723Z,9.99
2022-11-10T09:00:15.781Z,10.02
2022-11-10T09:02:52.568Z,10.04
2022-11-10T09:08:24.752Z,13.42
2022-11-10T09:14:30.889Z,16.76
2022-11-10T09:16:59.269Z,17.67
2022-11-10T09:19:23.809Z,18.39
2022-11-10T09:21:53.561Z,19.04
2022-11-10T09:24:31.203Z,19.54
2022-11-10T09:27:02.160Z,19.96
2022-11-10T09:29:30.088Z,20.24
2022-11-10T09:31:54.576Z,20.50
2022-11-10T09:34:21.049Z,20.71
2022-11-10T09:36:48.674Z,20.87
2022-11-10T09:42:45.230Z,21.29
2022-11-10T09:48:35.474Z,20.91
2022-11-10T09:52:58.315Z,17.76
2022-11-10T09:55:37.543Z,16.45
2022-11-10T09:58:03.353Z,15.50
2022-11-10T10:00:36.196Z,14.66
2022-11-10T10:03:06.394Z,13.96
2022-11-10T10:05:51.904Z,13.30
2022-11-10T10:08:35.341Z,12.76
2022-11-10T10:11:16.262Z,12.41
2022-11-10T10:14:19.142Z,12.11
2022-11-10T10:16:57.002Z,11.87
2022-11-10T10:19:36.752Z,11.71
2022-11-10T10:22:26.527Z,11.56
2022-11-10T10:25:00.181Z,11.51
2022-11-10T10:27:37.883Z,11.46
2022-11-10T10:30:02.779Z,11.42
2022-11-10T10:32:36.327Z,11.43
2022-11-10T10:35:02.608Z,11.48
2022-11-10T10:37:38.978Z,11.57
2022-11-10T10:40:09.664Z,11.58
2022-11-10T10:42:36.403Z,11.61
2022-11-10T10:45:21.629Z,11.62
2022-11-10T10:47:50.054Z,11.65
2022-11-10T10:50:32.421Z,11.76
2022-11-10T10:53:16.987Z,11.82
2022-11-10T10:55:50.267Z,11.88
2022-11-10T10:58:30.273Z,11.90
2022-11-10T11:00:57.923Z,11.95
2022-11-10T11:03:30.004Z,12.02
2022-11-10T11:06:09.703Z,12.10
2022-11-10T11:08:38.897Z,12.13
2022-11-10T11:11:14.909Z,12.18
2022-11-10T11:13:40.938Z,12.19
2022-11-10T11:16:13.611Z,12.22
2022-11-10T11:18:42.965Z,12.29
2022-11-10T11:21:35.457Z,12.34
2022-11-10T11:24:28.535Z,12.38
2022-11-10T11:27:05.661Z,12.52
2022-11-10T11:29:47.605Z,12.74
2022-11-10T11:32:44.704Z,13.00
2022-11-10T11:35:22.914Z,13.18
2022-11-10T11:38:04.966Z,13.31
2022-11-10T11:40:41.645Z,13.39
2022-11-10T11:43:39.055Z,13.55
2022-11-10T11:46:26.686Z,13.64
2022-11-10T11:49:15.340Z,13.92
2022-11-10T11:51:52.627Z,14.11
2022-11-10T11:54:46.253Z,14.16
2022-11-10T11:57:25.132Z,14.17
2022-11-10T12:00:10.563Z,14.09
2022-11-10T12:03:11.456Z,14.04
2022-11-10T12:05:46.849Z,14.02
2022-11-10T12:08:26.761Z,13.91
2022-11-10T12:11:06.654Z,13.81
2022-11-10T12:13:46.807Z,13.70
2022-11-10T12:16:24.144Z,13.71
2022-11-10T12:19:08.906Z,13.70
2022-11-10T12:21:46.563Z,13.81
2022-11-10T12:24:41.864Z,14.25
2022-11-10T12:27:28.202Z,15.04
2022-11-10T12:30:01.300Z,15.72
2022-11-10T12:32:46.991Z,16.29
2022-11-10T12:35:23.669Z,16.86
2022-11-10T12:37:56.639Z,17.18
2022-11-10T12:40:24.835Z,17.52
2022-11-10T12:42:58.694Z,17.77
2022-11-10T12:45:29.324Z,18.12
2022-11-10T12:47:59.194Z,18.23
2022-11-10T12:50:52.304Z,18.24
2022-11-10T12:53:26.254Z,18.41
2022-11-10T12:56:02.523Z,18.45
2022-11-10T12:58:34.542Z,18.60
2022-11-10T13:01:11.421Z,18.57
2022-11-10T13:03:44.855Z,17.92
2022-11-10T13:06:30.712Z,17.28
2022-11-10T13:08:56.527Z,16.76
2022-11-10T13:11:30.544Z,16.39
2022-11-10T13:14:00.041Z,16.14
2022-11-10T13:16:51.427Z,15.89
2022-11-10T13:20:27.781Z,15.44
2022-11-10T13:22:51.758Z,14.98
2022-11-10T13:25:46.873Z,14.66
2022-11-10T13:28:16.175Z,14.43
2022-11-10T13:30:48.966Z,14.21
2022-11-10T13:33:36.190Z,14.08
2022-11-10T13:36:04.667Z,14.02
2022-11-10T13:38:41.288Z,14.00
2022-11-10T13:41:25.655Z,13.99
2022-11-10T13:43:58.527Z,13.94
2022-11-10T13:46:39.354Z,13.89
2022-11-10T13:49:27.142Z,13.78
2022-11-10T13:52:09.169Z,13.77
2022-11-10T13:54:57.375Z,13.70
2022-11-10T13:57:32.263Z,13.64
2022-11-10T14:00:07.483Z,13.51
2022-11-10T14:03:04.225Z,13.43
2022-11-10T14:06:05.146Z,13.43
2022-11-10T14:08:48.623Z,13.41
2022-11-10T14:11:23.245Z,13.44
2022-11-10T14:13:59.778Z,13.50
2022-11-10T14:16:27.076Z,13.50
2022-11-10T14:19:03.391Z,13.47
2022-11-10T14:21:45.536Z,13.50
2022-11-10T14:24:20.369Z,13.54
2022-11-10T14:26:52.023Z,13.57
2022-11-10T14:29:32.739Z,13.53
2022-11-10T14:32:05.102Z,13.50
2022-11-10T14:34:31.357Z,13.44
2022-11-10T14:37:07.621Z,13.35
2022-11-10T14:39:43.576Z,13.12
2022-11-10T14:42:09.387Z,12.92
2022-11-10T14:44:38.691Z,12.77
2022-11-10T14:47:18.448Z,12.64
2022-11-10T14:49:44.321Z,12.50
2022-11-10T14:52:17.196Z,12.29
2022-11-10T14:54:51.515Z,12.15
2022-11-10T14:57:24.967Z,12.03
2022-11-10T14:59:54.839Z,11.94
2022-11-10T15:02:23.127Z,11.87
2022-11-10T15:04:50.671Z,11.79
2022-11-10T15:07:15.978Z,11.73
2022-11-10T15:09:42.243Z,11.61
2022-11-10T15:12:23.837Z,11.51
2022-11-10T15:14:50.623Z,11.41
2022-11-10T15:17:18.131Z,11.39
2022-11-10T15:19:56.764Z,11.37
2022-11-10T15:22:25.449Z,11.25
2022-11-10T15:24:53.426Z,11.17
2022-11-10T15:27:28.191Z,11.13
2022-11-10T15:29:54.993Z,11.14
2022-11-10T15:32:22.860Z,11.16
2022-11-10T15:34:49.033Z,11.16
2022-11-10T15:37:15.939Z,11.09
2022-11-10T15:39:40.484Z,11.01
2022-11-10T15:42:17.296Z,11.00
2022-11-10T15:44:50.082Z,10.97
2022-11-10T15:47:16.824Z,10.95
2022-11-10T15:49:43.676Z,10.95
2022-11-10T15:52:14.609Z,10.97
2022-11-10T15:54:40.276Z,10.97
2022-11-10T15:57:05.303Z,10.95
2022-11-10T15:59:29.918Z,10.96
2022-11-10T16:01:57.488Z,10.98
2022-11-10T16:04:22.678Z,11.00
2022-11-10T16:06:49.291Z,10.99
2022-11-10T16:09:16.059Z,10.98
2022-11-10T16:11:44.226Z,10.95
2022-11-10T16:14:09.646Z,10.92
2022-11-10T16:16:34.849Z,10.88
2022-11-10T16:19:04.922Z,10.91
2022-11-10T16:21:29.406Z,10.95
2022-11-10T16:23:54.707Z,10.96
2022-11-10T16:26:24.328Z,10.95
2022-11-10T16:28:49.137Z,10.91
2022-11-10T16:31:14.788Z,10.86
2022-11-10T16:33:40.554Z,10.83
2022-11-10T16:36:08.352Z,10.80
2022-11-10T16:38:35.165Z,10.76
2022-11-10T16:41:03.022Z,10.71
2022-11-10T16:43:27.928Z,10.68
2022-11-10T16:45:55.135Z,10.63
2022-11-10T16:48:25.478Z,10.58
2022-11-10T16:50:53.620Z,10.53
2022-11-10T16:53:24.456Z,10.52
2022-11-10T16:55:49.663Z,10.48
2022-11-10T16:58:13.799Z,10.45
2022-11-10T17:00:39.212Z,10.42
2022-11-10T17:03:09.845Z,10.37
2022-11-10T17:05:34.943Z,10.33
2022-11-10T17:08:02.457Z,10.31
2022-11-10T17:10:30.424Z,10.29
2022-11-10T17:12:55.956Z,10.29
2022-11-10T17:15:20.932Z,10.23
2022-11-10T17:17:49.415Z,10.20
2022-11-10T17:20:21.740Z,10.15
2022-11-10T17:22:47.971Z,10.14
2022-11-10T17:25:20.703Z,10.13
2022-11-10T17:27:49.448Z,10.11
2022-11-10T17:30:15.991Z,10.08
2022-11-10T17:33:03.669Z,10.05
2022-11-10T17:35:27.022Z,10.03
2022-11-10T17:37:56.371Z,10.02
2022-11-10T17:40:24.857Z,10.03
2022-11-10T17:42:53.642Z,10.05
2022-11-10T17:45:23.920Z,10.04
2022-11-10T17:47:49.322Z,10.05
2022-11-10T17:50:17.555Z,10.03
2022-11-10T17:52:42.195Z,10.02
2022-11-10T17:55:07.048Z,10.02
2022-11-10T17:57:32.605Z,10.04
2022-11-10T18:00:00.084Z,10.05
2022-11-10T18:02:24.915Z,10.07
2022-11-10T18:04:49.962Z,10.11
2022-11-10T18:07:15.139Z,10.14
2022-11-10T18:09:40.618Z,10.19
2022-11-10T18:12:11.254Z,10.25
2022-11-10T18:14:36.571Z,10.29
2022-11-10T18:17:03.569Z,10.33
2022-11-10T18:19:28.771Z,10.35
2022-11-10T18:21:53.566Z,10.34
2022-11-10T18:24:18.150Z,10.34
2022-11-10T18:26:43.369Z,10.32
2022-11-10T18:29:07.643Z,10.28
2022-11-10T18:31:32.079Z,10.23
2022-11-10T18:34:00.355Z,10.13
2022-11-10T18:36:25.053Z,10.16
2022-11-10T18:38:50.114Z,10.16
2022-11-10T18:41:27.523Z,10.17
2022-11-10T18:43:52.518Z,10.16
2022-11-10T18:46:17.956Z,10.15
2022-11-10T18:48:42.858Z,10.12
2022-11-10T18:51:11.250Z,10.08
2022-11-10T18:53:38.414Z,10.05
2022-11-10T18:56:03.075Z,9.99
2022-11-10T18:58:27.563Z,9.96
2022-11-10T19:00:52.775Z,9.94
2022-11-10T19:03:19.550Z,9.88
2022-11-10T19:05:44.250Z,9.83
2022-11-10T19:08:12.021Z,9.82
2022-11-10T19:10:36.622Z,9.77
2022-11-10T19:13:01.152Z,9.72
2022-11-10T19:15:26.914Z,9.70
2022-11-10T19:17:51.510Z,9.66
2022-11-10T19:20:15.998Z,9.61
2022-11-10T19:22:41.734Z,9.59
2022-11-10T19:25:09.610Z,9.56
2022-11-10T19:27:34.178Z,9.53
2022-11-10T19:29:59.843Z,9.52
2022-11-10T19:32:25.174Z,9.48
2022-11-10T19:34:49.533Z,9.47
2022-11-10T19:37:22.820Z,9.46
2022-11-10T19:39:47.522Z,9.44
2022-11-10T19:42:14.515Z,9.39
2022-11-10T19:44:41.105Z,9.33
2022-11-10T19:47:05.386Z,9.26
2022-11-10T19:49:30.029Z,9.22
2022-11-10T19:51:55.338Z,9.19
2022-11-10T19:54:20.033Z,9.18
2022-11-10T19:56:44.420Z,9.18
2022-11-10T19:59:14.176Z,9.16
2022-11-10T20:01:38.650Z,9.14
2022-11-10T20:04:04.906Z,9.13
2022-11-10T20:06:30.872Z,9.14
2022-11-10T20:08:55.447Z,9.17
2022-11-10T20:11:22.364Z,9.14
2022-11-10T20:13:53.323Z,9.15
2022-11-10T20:16:22.175Z,9.13
2022-11-10T20:18:47.539Z,9.10
2022-11-10T20:21:14.234Z,9.07
2022-11-10T20:23:38.985Z,9.05
2022-11-10T20:26:09.356Z,8.94
2022-11-10T20:28:33.900Z,8.90
2022-11-10T20:31:00.687Z,8.82
2022-11-10T20:33:29.462Z,8.78
2022-11-10T20:35:53.746Z,8.74
2022-11-10T20:38:26.023Z,8.69
2022-11-10T20:40:51.096Z,8.66
2022-11-10T20:43:17.072Z,8.64
2022-11-10T20:45:49.678Z,8.61
2022-11-10T20:48:28.050Z,8.59
2022-11-10T20:50:52.208Z,8.55
2022-11-10T20:53:16.293Z,8.52
2022-11-10T20:55:53.591Z,8.44
2022-11-10T20:58:18.346Z,8.40
2022-11-10T21:00:56.314Z,8.37
2022-11-10T21:03:29.414Z,8.33
2022-11-10T21:06:02.688Z,8.31
2022-11-10T21:08:26.545Z,8.25
2022-11-10T21:11:06.512Z,8.21
2022-11-10T21:13:36.817Z,8.14
2022-11-10T21:16:03.965Z,8.07
2022-11-10T21:18:35.209Z,8.00
2022-11-10T21:21:00.407Z,7.98
2022-11-10T21:23:25.049Z,7.93
2022-11-10T21:25:55.419Z,7.86
2022-11-10T21:28:20.149Z,7.79
2022-11-10T21:30:44.489Z,7.70
2022-11-10T21:33:09.641Z,7.60
2022-11-10T21:35:41.277Z,7.57
2022-11-10T21:38:05.810Z,7.54
2022-11-10T21:40:30.084Z,7.52
2022-11-10T21:42:58.118Z,7.46
2022-11-10T21:45:22.319Z,7.42
2022-11-10T21:47:46.829Z,7.41
2022-11-10T21:50:14.180Z,7.41
2022-11-10T21:52:42.633Z,7.41
2022-11-10T21:55:08.016Z,7.41
2022-11-10T21:57:32.678Z,7.42
2022-11-10T21:59:56.964Z,7.43
2022-11-10T22:02:20.773Z,7.40
2022-11-10T22:04:45.740Z,7.40
2022-11-10T22:07:28.454Z,7.35
2022-11-10T22:10:17.424Z,7.37
2022-11-10T22:13:02.465Z,7.38
2022-11-10T22:15:46.716Z,7.37
2022-11-10T22:18:34.864Z,7.36
2022-11-10T22:21:00.620Z,7.37
2022-11-10T22:23:43.532Z,7.36
2022-11-10T22:26:11.210Z,7.36
2022-11-10T22:28:35.298Z,7.34
2022-11-10T22:30:59.373Z,7.32
2022-11-10T22:33:30.912Z,7.30
2022-11-10T22:36:00.568Z,7.25
2022-11-10T22:38:25.194Z,7.22
2022-11-10T22:41:01.918Z,7.17
2022-11-10T22:43:50.795Z,7.16
2022-11-10T22:46:15.127Z,7.15
2022-11-10T22:48:41.855Z,7.16
2022-11-10T22:51:06.096Z,7.16
2022-11-10T22:53:31.423Z,7.15
2022-11-10T22:55:56.493Z,7.18
2022-11-10T22:58:21.033Z,7.10
2022-11-10T23:00:48.851Z,7.12
2022-11-10T23:03:15.633Z,7.07
2022-11-10T23:05:40.401Z,6.99
2022-11-10T23:08:04.676Z,6.94
2022-11-10T23:10:29.534Z,6.89
2022-11-10T23:12:56.483Z,6.87
2022-11-10T23:15:20.348Z,6.83
2022-11-10T23:17:47.901Z,6.83
2022-11-10T23:20:13.599Z,6.82
2022-11-10T23:22:37.745Z,6.80
2022-11-10T23:25:05.036Z,6.81
2022-11-10T23:27:29.172Z,6.79
2022-11-10T23:29:53.599Z,6.77
2022-11-10T23:32:20.831Z,6.76
2022-11-10T23:34:47.327Z,6.71
2022-11-10T23:37:11.569Z,6.70
2022-11-10T23:39:38.120Z,6.70
2022-11-10T23:42:02.076Z,6.69
2022-11-10T23:44:26.263Z,6.69
2022-11-10T23:46:51.132Z,6.72
2022-11-10T23:49:16.150Z,6.74
2022-11-10T23:51:43.175Z,6.74
2022-11-10T23:54:08.252Z,6.77
2022-11-10T23:56:32.271Z,6.79
2022-11-10T23:58:56.511Z,6.78
